SPKEA EPBC-EPGY
Flight info
| Callsign | SPKEA |
|---|---|
| Flight time | 0h 37m |
| Altitude | 1500 |
| Route | DCT LUQIQ DCT EPBCJ DCT 522540N0210156E DCT EPNCB DCT 523549N0210739E 524221N0210529E 524725N0211948E 524830N0213404E DCT |
| Aircraft | C172/L-SBDGR/C |
Departure
| Time | 2026-05-07 16:34 |
|---|---|
| Airport | Warsaw Babice Airport (EPBC) |
Arrival
| Time | 2026-05-07 17:11 |
|---|---|
| Airport | Grądy Airfield (EPGY) |
| Time | Latitude | Longitude | Altitude | Speed | Heading |
|---|---|---|---|---|---|
| 2026-05-07 16:17 | 52.26741 | 20.90047 | 350 ft | 0 kts | 196° |
| 2026-05-07 16:27 | 52.26736 | 20.90045 | 350 ft | 1 kts | 191° |
| 2026-05-07 16:28 | 52.26719 | 20.90086 | 350 ft | 10 kts | 99° |
| 2026-05-07 16:28 | 52.26700 | 20.90219 | 350 ft | 11 kts | 104° |
| 2026-05-07 16:28 | 52.26683 | 20.90337 | 350 ft | 10 kts | 105° |
| 2026-05-07 16:28 | 52.26668 | 20.90446 | 350 ft | 10 kts | 103° |
| 2026-05-07 16:29 | 52.26652 | 20.90565 | 350 ft | 11 kts | 101° |
| 2026-05-07 16:29 | 52.26636 | 20.90681 | 350 ft | 9 kts | 102° |
| 2026-05-07 16:29 | 52.26675 | 20.90708 | 350 ft | 9 kts | 333° |
| 2026-05-07 16:29 | 52.26743 | 20.90651 | 350 ft | 9 kts | 333° |
| 2026-05-07 16:30 | 52.26798 | 20.90605 | 350 ft | 8 kts | 332° |
| 2026-05-07 16:30 | 52.26854 | 20.90558 | 350 ft | 6 kts | 333° |
| 2026-05-07 16:30 | 52.26861 | 20.90552 | 350 ft | 4 kts | 331° |
| 2026-05-07 16:30 | 52.26927 | 20.90556 | 350 ft | 12 kts | 54° |
| 2026-05-07 16:31 | 52.26920 | 20.90688 | 350 ft | 13 kts | 102° |
| 2026-05-07 16:31 | 52.26894 | 20.90873 | 350 ft | 18 kts | 102° |
| 2026-05-07 16:31 | 52.26864 | 20.91086 | 350 ft | 18 kts | 102° |
| 2026-05-07 16:31 | 52.26837 | 20.91276 | 350 ft | 16 kts | 103° |
| 2026-05-07 16:32 | 52.26812 | 20.91456 | 350 ft | 15 kts | 102° |
| 2026-05-07 16:32 | 52.26782 | 20.91583 | 350 ft | 10 kts | 100° |
| 2026-05-07 16:32 | 52.26796 | 20.91578 | 350 ft | 6 kts | 282° |
| 2026-05-07 16:32 | 52.26797 | 20.91570 | 350 ft | 0 kts | 283° |
| 2026-05-07 16:33 | 52.26805 | 20.91509 | 350 ft | 17 kts | 285° |
| 2026-05-07 16:33 | 52.26851 | 20.91163 | 350 ft | 52 kts | 281° |
| 2026-05-07 16:33 | 52.26946 | 20.90453 | 444 ft | 70 kts | 286° |
| 2026-05-07 16:33 | 52.27050 | 20.89683 | 635 ft | 70 kts | 287° |
| 2026-05-07 16:34 | 52.27162 | 20.88905 | 818 ft | 71 kts | 290° |
| 2026-05-07 16:34 | 52.27273 | 20.88113 | 988 ft | 73 kts | 287° |
| 2026-05-07 16:34 | 52.27385 | 20.87298 | 1111 ft | 72 kts | 287° |
| 2026-05-07 16:34 | 52.27528 | 20.86529 | 1231 ft | 68 kts | 315° |
| 2026-05-07 16:35 | 52.27970 | 20.86411 | 1373 ft | 70 kts | 7° |
| 2026-05-07 16:35 | 52.28459 | 20.86613 | 1473 ft | 76 kts | 10° |
| 2026-05-07 16:35 | 52.28889 | 20.87101 | 1489 ft | 81 kts | 43° |
| 2026-05-07 16:35 | 52.29238 | 20.87864 | 1482 ft | 81 kts | 47° |
| 2026-05-07 16:36 | 52.29566 | 20.88569 | 1478 ft | 76 kts | 44° |
| 2026-05-07 16:36 | 52.29900 | 20.89246 | 1489 ft | 78 kts | 43° |
| 2026-05-07 16:36 | 52.30254 | 20.89926 | 1488 ft | 80 kts | 41° |
| 2026-05-07 16:36 | 52.30632 | 20.90622 | 1489 ft | 83 kts | 40° |
| 2026-05-07 16:37 | 52.31031 | 20.91327 | 1493 ft | 84 kts | 41° |
| 2026-05-07 16:37 | 52.31446 | 20.91884 | 1482 ft | 71 kts | 16° |
| 2026-05-07 16:37 | 52.31918 | 20.92039 | 1490 ft | 68 kts | 5° |
| 2026-05-07 16:37 | 52.32384 | 20.92126 | 1498 ft | 69 kts | 1° |
| 2026-05-07 16:38 | 52.32880 | 20.92152 | 1498 ft | 72 kts | 358° |
| 2026-05-07 16:38 | 52.33388 | 20.92129 | 1494 ft | 73 kts | 356° |
| 2026-05-07 16:38 | 52.33900 | 20.92080 | 1493 ft | 73 kts | 356° |
| 2026-05-07 16:38 | 52.34412 | 20.92065 | 1487 ft | 76 kts | 356° |
| 2026-05-07 16:39 | 52.34994 | 20.92024 | 1493 ft | 89 kts | 356° |
| 2026-05-07 16:39 | 52.35649 | 20.91966 | 1497 ft | 96 kts | 353° |
| 2026-05-07 16:39 | 52.36307 | 20.91795 | 1493 ft | 94 kts | 347° |
| 2026-05-07 16:39 | 52.36943 | 20.91636 | 1492 ft | 93 kts | 357° |
| 2026-05-07 16:40 | 52.37583 | 20.91735 | 1516 ft | 91 kts | 13° |
| 2026-05-07 16:40 | 52.38120 | 20.92323 | 1532 ft | 102 kts | 45° |
| 2026-05-07 16:40 | 52.38545 | 20.93316 | 1529 ft | 111 kts | 53° |
| 2026-05-07 16:40 | 52.38951 | 20.94425 | 1523 ft | 115 kts | 53° |
| 2026-05-07 16:41 | 52.39394 | 20.95502 | 1516 ft | 109 kts | 50° |
| 2026-05-07 16:41 | 52.39805 | 20.96489 | 1516 ft | 102 kts | 52° |
| 2026-05-07 16:41 | 52.40183 | 20.97455 | 1520 ft | 99 kts | 50° |
| 2026-05-07 16:41 | 52.40597 | 20.98373 | 1527 ft | 104 kts | 47° |
| 2026-05-07 16:42 | 52.41040 | 20.99380 | 1521 ft | 112 kts | 51° |
| 2026-05-07 16:42 | 52.41474 | 21.00443 | 1519 ft | 113 kts | 50° |
| 2026-05-07 16:42 | 52.41939 | 21.01461 | 1517 ft | 110 kts | 47° |
| 2026-05-07 16:42 | 52.42406 | 21.02443 | 1517 ft | 108 kts | 46° |
| 2026-05-07 16:43 | 52.42887 | 21.03392 | 1516 ft | 107 kts | 34° |
| 2026-05-07 16:43 | 52.43526 | 21.03937 | 1509 ft | 105 kts | 19° |
| 2026-05-07 16:43 | 52.44214 | 21.04355 | 1494 ft | 105 kts | 14° |
| 2026-05-07 16:43 | 52.44915 | 21.04660 | 1496 ft | 103 kts | 6° |
| 2026-05-07 16:44 | 52.45612 | 21.04926 | 1502 ft | 103 kts | 14° |
| 2026-05-07 16:44 | 52.46308 | 21.05148 | 1505 ft | 102 kts | 7° |
| 2026-05-07 16:44 | 52.46991 | 21.05515 | 1508 ft | 103 kts | 21° |
| 2026-05-07 16:44 | 52.47665 | 21.05880 | 1516 ft | 102 kts | 11° |
| 2026-05-07 16:45 | 52.48361 | 21.06076 | 1525 ft | 101 kts | 5° |
| 2026-05-07 16:45 | 52.49062 | 21.06295 | 1526 ft | 102 kts | 14° |
| 2026-05-07 16:45 | 52.49726 | 21.06735 | 1522 ft | 104 kts | 21° |
| 2026-05-07 16:45 | 52.50395 | 21.07151 | 1512 ft | 103 kts | 14° |
| 2026-05-07 16:46 | 52.51084 | 21.07493 | 1505 ft | 103 kts | 13° |
| 2026-05-07 16:46 | 52.51789 | 21.07721 | 1505 ft | 102 kts | 7° |
| 2026-05-07 16:46 | 52.52493 | 21.07911 | 1510 ft | 103 kts | 8° |
| 2026-05-07 16:46 | 52.53189 | 21.08233 | 1501 ft | 104 kts | 16° |
| 2026-05-07 16:47 | 52.53862 | 21.08683 | 1496 ft | 104 kts | 20° |
| 2026-05-07 16:47 | 52.54528 | 21.09111 | 1496 ft | 102 kts | 14° |
| 2026-05-07 16:47 | 52.55215 | 21.09364 | 1496 ft | 101 kts | 8° |
| 2026-05-07 16:47 | 52.55911 | 21.09574 | 1498 ft | 101 kts | 12° |
| 2026-05-07 16:48 | 52.56570 | 21.09987 | 1501 ft | 102 kts | 25° |
| 2026-05-07 16:48 | 52.57145 | 21.10692 | 1503 ft | 105 kts | 39° |
| 2026-05-07 16:48 | 52.57649 | 21.11571 | 1501 ft | 105 kts | 40° |
| 2026-05-07 16:48 | 52.58215 | 21.12313 | 1511 ft | 103 kts | 26° |
| 2026-05-07 16:49 | 52.58886 | 21.12698 | 1517 ft | 101 kts | 8° |
| 2026-05-07 16:49 | 52.59584 | 21.12736 | 1523 ft | 101 kts | 354° |
| 2026-05-07 16:49 | 52.60285 | 21.12581 | 1530 ft | 101 kts | 347° |
| 2026-05-07 16:49 | 52.60971 | 21.12289 | 1528 ft | 102 kts | 343° |
| 2026-05-07 16:50 | 52.61643 | 21.11913 | 1527 ft | 102 kts | 340° |
| 2026-05-07 16:50 | 52.62312 | 21.11492 | 1522 ft | 102 kts | 339° |
| 2026-05-07 16:50 | 52.62978 | 21.11070 | 1515 ft | 102 kts | 340° |
| 2026-05-07 16:50 | 52.63644 | 21.10623 | 1505 ft | 103 kts | 337° |
| 2026-05-07 16:51 | 52.64299 | 21.10167 | 1492 ft | 103 kts | 340° |
| 2026-05-07 16:51 | 52.64986 | 21.09794 | 1487 ft | 103 kts | 343° |
| 2026-05-07 16:51 | 52.65658 | 21.09412 | 1481 ft | 103 kts | 345° |
| 2026-05-07 16:51 | 52.66360 | 21.09180 | 1479 ft | 102 kts | 352° |
| 2026-05-07 16:52 | 52.67068 | 21.09060 | 1480 ft | 102 kts | 353° |
| 2026-05-07 16:52 | 52.67775 | 21.08983 | 1478 ft | 102 kts | 0° |
| 2026-05-07 16:52 | 52.68480 | 21.09106 | 1480 ft | 102 kts | 5° |
| 2026-05-07 16:52 | 52.69181 | 21.09223 | 1480 ft | 102 kts | 3° |
| 2026-05-07 16:53 | 52.69886 | 21.09283 | 1477 ft | 97 kts | 2° |
| 2026-05-07 16:53 | 52.70529 | 21.09481 | 1474 ft | 93 kts | 20° |
| 2026-05-07 16:53 | 52.70961 | 21.10271 | 1480 ft | 96 kts | 57° |
| 2026-05-07 16:53 | 52.71261 | 21.11261 | 1487 ft | 99 kts | 54° |
| 2026-05-07 16:54 | 52.71590 | 21.12268 | 1490 ft | 101 kts | 53° |
| 2026-05-07 16:54 | 52.71967 | 21.13265 | 1490 ft | 102 kts | 52° |
| 2026-05-07 16:54 | 52.72335 | 21.14271 | 1497 ft | 103 kts | 56° |
| 2026-05-07 16:54 | 52.72692 | 21.15293 | 1485 ft | 103 kts | 52° |
| 2026-05-07 16:55 | 52.73063 | 21.16310 | 1483 ft | 103 kts | 53° |
| 2026-05-07 16:55 | 52.73447 | 21.17306 | 1483 ft | 103 kts | 51° |
| 2026-05-07 16:55 | 52.73840 | 21.18302 | 1480 ft | 103 kts | 53° |
| 2026-05-07 16:55 | 52.74201 | 21.19305 | 1485 ft | 102 kts | 52° |
| 2026-05-07 16:56 | 52.74613 | 21.20271 | 1485 ft | 102 kts | 48° |
| 2026-05-07 16:56 | 52.74997 | 21.21257 | 1488 ft | 101 kts | 47° |
| 2026-05-07 16:56 | 52.75948 | 21.22930 | 1492 ft | 102 kts | 46° |
| 2026-05-07 16:57 | 52.76323 | 21.23948 | 1492 ft | 104 kts | 56° |
| 2026-05-07 16:57 | 52.76581 | 21.25086 | 1491 ft | 106 kts | 67° |
| 2026-05-07 16:57 | 52.76781 | 21.26253 | 1491 ft | 105 kts | 63° |
| 2026-05-07 16:57 | 52.77076 | 21.27364 | 1491 ft | 104 kts | 57° |
| 2026-05-07 16:58 | 52.77314 | 21.28506 | 1490 ft | 105 kts | 63° |
| 2026-05-07 16:58 | 52.77675 | 21.29498 | 1493 ft | 101 kts | 46° |
| 2026-05-07 16:58 | 52.78076 | 21.30482 | 1490 ft | 103 kts | 53° |
| 2026-05-07 16:58 | 52.78423 | 21.31473 | 1483 ft | 97 kts | 53° |
| 2026-05-07 16:59 | 52.78784 | 21.32380 | 1487 ft | 96 kts | 51° |
| 2026-05-07 16:59 | 52.79005 | 21.33458 | 1489 ft | 102 kts | 77° |
| 2026-05-07 16:59 | 52.78900 | 21.34639 | 1490 ft | 108 kts | 102° |
| 2026-05-07 16:59 | 52.78670 | 21.35835 | 1495 ft | 111 kts | 97° |
| 2026-05-07 17:00 | 52.78499 | 21.37071 | 1544 ft | 110 kts | 89° |
| 2026-05-07 17:00 | 52.78537 | 21.38308 | 1555 ft | 107 kts | 68° |
| 2026-05-07 17:00 | 52.78772 | 21.39492 | 1552 ft | 107 kts | 62° |
| 2026-05-07 17:00 | 52.78943 | 21.40673 | 1562 ft | 107 kts | 92° |
| 2026-05-07 17:01 | 52.78657 | 21.41840 | 1552 ft | 115 kts | 111° |
| 2026-05-07 17:01 | 52.78470 | 21.43116 | 1555 ft | 117 kts | 88° |
| 2026-05-07 17:01 | 52.78597 | 21.44414 | 1552 ft | 113 kts | 59° |
| 2026-05-07 17:01 | 52.79006 | 21.45449 | 1546 ft | 103 kts | 47° |
| 2026-05-07 17:02 | 52.79314 | 21.46516 | 1542 ft | 105 kts | 73° |
| 2026-05-07 17:02 | 52.79460 | 21.47685 | 1547 ft | 104 kts | 64° |
| 2026-05-07 17:02 | 52.79649 | 21.48856 | 1545 ft | 105 kts | 71° |
| 2026-05-07 17:02 | 52.79772 | 21.50043 | 1548 ft | 102 kts | 71° |
| 2026-05-07 17:03 | 52.79921 | 21.51172 | 1551 ft | 101 kts | 68° |
| 2026-05-07 17:03 | 52.80075 | 21.52327 | 1553 ft | 103 kts | 72° |
| 2026-05-07 17:03 | 52.80196 | 21.53504 | 1555 ft | 104 kts | 70° |
| 2026-05-07 17:03 | 52.80347 | 21.54673 | 1555 ft | 104 kts | 71° |
| 2026-05-07 17:04 | 52.80474 | 21.55859 | 1552 ft | 105 kts | 72° |
| 2026-05-07 17:04 | 52.80573 | 21.57074 | 1550 ft | 104 kts | 73° |
| 2026-05-07 17:04 | 52.80713 | 21.58244 | 1547 ft | 102 kts | 69° |
| 2026-05-07 17:04 | 52.80857 | 21.59386 | 1550 ft | 103 kts | 71° |
| 2026-05-07 17:05 | 52.80990 | 21.60515 | 1548 ft | 99 kts | 70° |
| 2026-05-07 17:05 | 52.81137 | 21.61641 | 1555 ft | 101 kts | 74° |
| 2026-05-07 17:05 | 52.81220 | 21.62802 | 1554 ft | 97 kts | 74° |
| 2026-05-07 17:05 | 52.81325 | 21.63831 | 1553 ft | 87 kts | 68° |
| 2026-05-07 17:06 | 52.81450 | 21.64802 | 1554 ft | 85 kts | 68° |
| 2026-05-07 17:06 | 52.81553 | 21.65790 | 1562 ft | 90 kts | 74° |
| 2026-05-07 17:06 | 52.81643 | 21.66834 | 1559 ft | 92 kts | 72° |
| 2026-05-07 17:06 | 52.81766 | 21.67898 | 1559 ft | 95 kts | 69° |
| 2026-05-07 17:07 | 52.81908 | 21.68983 | 1559 ft | 98 kts | 71° |
| 2026-05-07 17:07 | 52.82039 | 21.70087 | 1558 ft | 98 kts | 71° |
| 2026-05-07 17:07 | 52.82151 | 21.71200 | 1558 ft | 99 kts | 76° |
| 2026-05-07 17:07 | 52.82241 | 21.72331 | 1550 ft | 97 kts | 74° |
| 2026-05-07 17:08 | 52.82331 | 21.73409 | 1554 ft | 95 kts | 76° |
| 2026-05-07 17:08 | 52.82349 | 21.74497 | 1548 ft | 94 kts | 85° |
| 2026-05-07 17:08 | 52.82292 | 21.75552 | 1546 ft | 92 kts | 88° |
| 2026-05-07 17:08 | 52.82228 | 21.76561 | 1494 ft | 83 kts | 86° |
| 2026-05-07 17:09 | 52.82170 | 21.77489 | 1402 ft | 82 kts | 86° |
| 2026-05-07 17:09 | 52.82144 | 21.78446 | 1324 ft | 86 kts | 80° |
| 2026-05-07 17:09 | 52.82137 | 21.79416 | 1335 ft | 82 kts | 84° |
| 2026-05-07 17:09 | 52.82234 | 21.80316 | 1254 ft | 78 kts | 48° |
| 2026-05-07 17:10 | 52.82674 | 21.80702 | 1190 ft | 71 kts | 7° |
| 2026-05-07 17:10 | 52.83142 | 21.80754 | 1184 ft | 65 kts | 357° |
| 2026-05-07 17:10 | 52.83499 | 21.80281 | 1010 ft | 79 kts | 294° |
| 2026-05-07 17:10 | 52.83579 | 21.79382 | 730 ft | 80 kts | 285° |
| 2026-05-07 17:11 | 52.83654 | 21.78481 | 457 ft | 77 kts | 282° |
| 2026-05-07 17:11 | 52.83697 | 21.77773 | 400 ft | 38 kts | 278° |
| 2026-05-07 17:11 | 52.83713 | 21.77505 | 400 ft | 18 kts | 274° |
| 2026-05-07 17:11 | 52.83668 | 21.77456 | 400 ft | 4 kts | 177° |
| 2026-05-07 17:12 | 52.83654 | 21.77486 | 400 ft | 0 kts | 47° |